Terminal Aerodrome Forecast
Issued by NWS

Home | Current Version | Previous Version | Graphics & Text | Print | Product List | Glossary On
Versions: 1 2 3 4 5 6 7 8 9 10 11 12 13 14 15 16 17 18
073
FTUS43 KTOP 210520
TAFFOE
TAF
KFOE 210520Z 2106/2206 18020G31KT P6SM SCT025 BKN100
     FM210900 18019G25KT P6SM BKN020
     FM212000 19017G25KT P6SM TSRA BKN020CB
     FM212300 30011KT 3SM SHRA VCTS OVC015CB
     FM220100 34012G23KT P6SM -SHRA BKN030=

USA.gov is the U.S. government's official web portal to all federal, state and local government web resources and services.